createdAt,value
2022-08-04T00:00:56.058Z,99734.38
2022-08-04T00:03:29.082Z,99736.09
2022-08-04T00:06:01.660Z,99735.50
2022-08-04T00:08:36.289Z,99731.34
2022-08-04T00:11:04.930Z,99729.66
2022-08-04T00:13:59.715Z,99724.47
2022-08-04T00:16:31.302Z,99727.84
2022-08-04T00:19:03.740Z,99723.31
2022-08-04T00:21:37.682Z,99725.84
2022-08-04T00:24:12.246Z,99727.53
2022-08-04T00:26:41.638Z,99732.72
2022-08-04T00:29:11.610Z,99725.16
2022-08-04T00:31:56.403Z,99727.84
2022-08-04T00:34:27.749Z,99735.75
2022-08-04T00:36:57.077Z,99725.44
2022-08-04T00:39:26.401Z,99727.19
2022-08-04T00:42:05.651Z,99734.81
2022-08-04T00:44:40.980Z,99737.56
2022-08-04T00:47:20.844Z,99746.28
2022-08-04T00:49:59.423Z,99735.22
2022-08-04T00:52:34.541Z,99740.41
2022-08-04T00:55:12.960Z,99740.53
2022-08-04T00:57:53.216Z,99737.28
2022-08-04T01:00:23.960Z,99738.94
2022-08-04T01:03:02.062Z,99740.63
2022-08-04T01:05:37.946Z,99738.22
2022-08-04T01:08:17.233Z,99740.97
2022-08-04T01:10:56.251Z,99735.09
2022-08-04T01:13:31.320Z,99733.31
2022-08-04T01:16:05.423Z,99734.09
2022-08-04T01:18:37.489Z,99735.88
2022-08-04T01:21:19.130Z,99732.38
2022-08-04T01:23:58.957Z,99737.69
2022-08-04T01:26:42.651Z,99733.47
2022-08-04T01:29:24.381Z,99728.38
2022-08-04T01:32:03.705Z,99728.09
2022-08-04T01:34:36.098Z,99726.19
2022-08-04T01:37:13.728Z,99727.19
2022-08-04T01:39:46.258Z,99728.75
2022-08-04T01:42:31.619Z,99725.28
2022-08-04T01:45:04.898Z,99725.28
2022-08-04T01:47:35.733Z,99726.19
2022-08-04T01:50:09.139Z,99726.25
2022-08-04T01:52:38.673Z,99727.09
2022-08-04T01:55:10.049Z,99727.09
2022-08-04T01:57:39.614Z,99730.47
2022-08-04T02:00:10.577Z,99733.06
2022-08-04T02:02:40.437Z,99726.16
2022-08-04T02:05:11.331Z,99730.38
2022-08-04T02:07:49.143Z,99733.84
2022-08-04T02:10:23.085Z,99725.28
2022-08-04T02:12:57.660Z,99723.50
2022-08-04T02:15:31.849Z,99724.50
2022-08-04T02:18:05.217Z,99717.59
2022-08-04T02:20:37.652Z,99717.59
2022-08-04T02:23:10.409Z,99721.91
2022-08-04T02:25:41.798Z,99720.31
2022-08-04T02:28:14.298Z,99723.03
2022-08-04T02:30:48.558Z,99720.53
2022-08-04T02:33:20.749Z,99715.34
2022-08-04T02:35:52.770Z,99719.59
2022-08-04T02:38:26.061Z,99726.53
2022-08-04T02:40:56.678Z,99723.03
2022-08-04T02:43:51.668Z,99727.56
2022-08-04T02:46:21.044Z,99726.00
2022-08-04T02:48:51.392Z,99726.34
2022-08-04T02:51:23.505Z,99723.44
2022-08-04T02:53:55.237Z,99724.56
2022-08-04T02:56:24.315Z,99719.28
2022-08-04T02:58:54.643Z,99716.50
2022-08-04T03:01:25.224Z,99713.91
2022-08-04T03:04:03.736Z,99728.47
2022-08-04T03:06:48.359Z,99719.69
2022-08-04T03:09:27.823Z,99728.41
2022-08-04T03:12:17.911Z,99725.94
2022-08-04T03:15:00.699Z,99719.13
2022-08-04T03:17:53.027Z,99725.31
2022-08-04T03:20:31.261Z,99724.53
2022-08-04T03:23:14.310Z,99730.78
2022-08-04T03:25:57.249Z,99729.34
2022-08-04T03:28:36.958Z,99733.44
2022-08-04T03:31:12.508Z,99738.25
2022-08-04T03:33:56.021Z,99732.38
2022-08-04T03:36:36.302Z,99737.09
2022-08-04T03:39:27.893Z,99741.78
2022-08-04T03:42:11.164Z,99737.66
2022-08-04T03:44:54.271Z,99739.25
2022-08-04T03:47:30.331Z,99744.16
2022-08-04T03:50:14.529Z,99745.50
2022-08-04T03:53:07.610Z,99747.78
2022-08-04T03:55:56.862Z,99739.75
2022-08-04T03:58:36.047Z,99733.66
2022-08-04T04:01:10.859Z,99743.69
2022-08-04T04:03:52.790Z,99745.13
2022-08-04T04:06:32.020Z,99737.53
2022-08-04T04:09:20.448Z,99740.94
2022-08-04T04:12:07.679Z,99730.94
2022-08-04T04:14:45.901Z,99735.84
2022-08-04T04:17:25.319Z,99739.09
2022-08-04T04:20:10.292Z,99739.56
2022-08-04T04:22:48.819Z,99742.88
2022-08-04T04:25:26.229Z,99750.19
2022-08-04T04:28:44.556Z,99740.44
2022-08-04T04:31:03.912Z,99746.16
2022-08-04T04:33:38.239Z,99747.56
2022-08-04T04:36:12.830Z,99750.16
2022-08-04T04:38:59.479Z,99755.31
2022-08-04T04:41:38.756Z,99749.75
2022-08-04T04:44:28.732Z,99754.31
2022-08-04T04:47:04.991Z,99746.13
2022-08-04T04:49:39.152Z,99751.00
2022-08-04T04:52:11.353Z,99761.09
2022-08-04T04:54:41.330Z,99764.16
2022-08-04T04:57:13.394Z,99765.56
2022-08-04T04:59:48.711Z,99765.19
2022-08-04T05:02:34.964Z,99756.13
2022-08-04T05:05:14.090Z,99756.53
2022-08-04T05:07:53.613Z,99755.94
2022-08-04T05:10:33.099Z,99758.78
2022-08-04T05:14:35.657Z,99754.97
2022-08-04T05:16:01.709Z,99759.69
2022-08-04T05:18:32.957Z,99749.72
2022-08-04T05:21:10.182Z,99756.13
2022-08-04T05:23:43.222Z,99758.97
2022-08-04T05:26:14.161Z,99754.84
2022-08-04T05:28:44.831Z,99756.06
2022-08-04T05:31:14.147Z,99758.91
2022-08-04T05:33:44.878Z,99760.06
2022-08-04T05:36:23.495Z,99758.63
2022-08-04T05:39:03.807Z,99758.94
2022-08-04T05:41:45.555Z,99762.09
2022-08-04T05:44:17.079Z,99754.66
2022-08-04T05:46:53.927Z,99758.44
2022-08-04T05:49:24.393Z,99760.47
2022-08-04T05:51:53.431Z,99756.59
2022-08-04T05:54:22.961Z,99755.19
2022-08-04T05:56:52.999Z,99758.19
2022-08-04T05:59:24.163Z,99760.97
2022-08-04T06:01:56.723Z,99768.25
2022-08-04T06:04:28.431Z,99766.94
2022-08-04T06:06:56.812Z,99770.78
2022-08-04T06:09:25.517Z,99773.69
2022-08-04T06:12:03.515Z,99775.53
2022-08-04T06:14:37.221Z,99772.47
2022-08-04T06:19:57.053Z,99771.97
2022-08-04T06:20:18.167Z,99777.44
2022-08-04T06:22:47.392Z,99776.81
2022-08-04T06:25:19.324Z,99778.78
2022-08-04T06:27:50.273Z,99783.97
2022-08-04T06:30:20.086Z,99778.94
2022-08-04T06:33:03.577Z,99778.28
2022-08-04T06:35:33.508Z,99775.59
2022-08-04T06:38:03.198Z,99775.94
2022-08-04T06:40:34.056Z,99776.63
2022-08-04T06:43:06.078Z,99768.28
2022-08-04T06:45:35.671Z,99770.97
2022-08-04T06:48:05.155Z,99772.53
2022-08-04T06:51:31.390Z,99762.44
2022-08-04T06:53:22.772Z,99762.75
2022-08-04T06:55:52.002Z,99760.88
2022-08-04T06:58:22.673Z,99760.34
2022-08-04T07:00:52.593Z,99763.19
2022-08-04T07:03:22.105Z,99763.94
2022-08-04T07:05:50.848Z,99764.72
2022-08-04T07:08:20.559Z,99756.44
2022-08-04T07:10:50.051Z,99757.09
2022-08-04T07:13:20.363Z,99750.34
2022-08-04T07:15:50.540Z,99761.28
2022-08-04T07:18:19.209Z,99759.00
2022-08-04T07:20:48.243Z,99763.41
2022-08-04T07:23:21.572Z,99754.03
2022-08-04T07:25:59.130Z,99755.69
2022-08-04T07:28:33.642Z,99753.50
2022-08-04T07:31:03.872Z,99759.94
2022-08-04T07:33:32.630Z,99757.91
2022-08-04T07:36:09.203Z,99759.84
2022-08-04T07:38:48.076Z,99760.06
2022-08-04T07:41:38.291Z,99755.38
2022-08-04T07:44:08.546Z,99753.28
2022-08-04T07:46:38.430Z,99752.81
2022-08-04T07:49:08.881Z,99745.03
2022-08-04T07:51:37.689Z,99742.72
2022-08-04T07:54:06.333Z,99742.53
2022-08-04T07:56:35.251Z,99744.63
2022-08-04T07:59:03.959Z,99730.22
2022-08-04T08:01:32.570Z,99732.22
2022-08-04T08:04:02.963Z,99746.03
2022-08-04T08:06:34.909Z,99738.41
2022-08-04T08:09:13.446Z,99741.16
2022-08-04T08:12:38.720Z,99734.09
2022-08-04T08:14:32.080Z,99739.72
2022-08-04T08:17:01.672Z,99742.88
2022-08-04T08:19:31.843Z,99741.47
2022-08-04T08:22:01.111Z,99743.00
2022-08-04T08:24:30.474Z,99736.50
2022-08-04T08:26:59.010Z,99743.00
2022-08-04T08:29:27.803Z,99739.13
2022-08-04T08:32:01.518Z,99738.91
2022-08-04T08:34:35.572Z,99734.44
2022-08-04T08:37:06.639Z,99736.78
2022-08-04T08:39:37.816Z,99734.75
2022-08-04T08:42:21.119Z,99736.22
2022-08-04T08:45:10.814Z,99730.50
2022-08-04T08:48:05.113Z,99740.78
2022-08-04T08:50:56.400Z,99742.00
2022-08-04T08:53:32.412Z,99735.97
2022-08-04T08:56:13.308Z,99741.22
2022-08-04T08:58:48.512Z,99737.53
2022-08-04T09:01:27.773Z,99736.34
2022-08-04T09:04:22.860Z,99740.75
2022-08-04T09:07:04.349Z,99744.72
2022-08-04T09:09:43.543Z,99743.06
2022-08-04T09:12:16.321Z,99738.03
2022-08-04T09:14:54.522Z,99727.25
2022-08-04T09:17:28.807Z,99732.16
2022-08-04T09:20:00.699Z,99729.53
2022-08-04T09:22:37.270Z,99730.34
2022-08-04T09:25:10.130Z,99728.13
2022-08-04T09:27:41.955Z,99734.91
2022-08-04T09:30:12.032Z,99726.91
2022-08-04T09:32:45.700Z,99723.44
2022-08-04T09:35:19.647Z,99719.81
2022-08-04T09:37:56.330Z,99716.06
2022-08-04T09:40:35.649Z,99714.72
2022-08-04T09:43:57.199Z,99713.31
2022-08-04T09:46:22.674Z,99709.34
2022-08-04T09:48:55.352Z,99701.97
2022-08-04T09:51:27.100Z,99696.94
2022-08-04T09:54:31.036Z,99699.75
2022-08-04T09:57:09.302Z,99696.16
2022-08-04T09:59:42.902Z,99700.19
2022-08-04T10:02:13.063Z,99696.47
2022-08-04T10:04:44.266Z,99697.97
2022-08-04T10:07:31.412Z,99694.09
2022-08-04T10:10:12.372Z,99694.19
2022-08-04T10:12:50.151Z,99705.72
2022-08-04T10:15:21.217Z,99691.84
2022-08-04T10:18:01.732Z,99703.25
2022-08-04T10:20:48.188Z,99705.19
2022-08-04T10:23:25.099Z,99703.41
2022-08-04T10:26:07.017Z,99696.88
2022-08-04T10:28:43.313Z,99696.66
2022-08-04T10:31:15.083Z,99689.19
2022-08-04T10:33:45.434Z,99681.41
2022-08-04T10:36:19.011Z,99688.47
2022-08-04T10:38:51.499Z,99684.31
2022-08-04T10:41:25.832Z,99678.63
2022-08-04T10:44:02.634Z,99675.59
2022-08-04T10:46:34.270Z,99669.94
2022-08-04T10:49:05.683Z,99678.78
2022-08-04T10:51:58.946Z,99660.16
2022-08-04T10:54:28.701Z,99668.03
2022-08-04T10:57:00.655Z,99667.47
2022-08-04T10:59:34.735Z,99671.91
2022-08-04T11:02:16.706Z,99669.41
2022-08-04T11:04:48.301Z,99662.16
2022-08-04T11:07:18.419Z,99662.16
2022-08-04T11:09:47.209Z,99670.78
2022-08-04T11:12:18.032Z,99666.91
2022-08-04T11:14:51.755Z,99664.69
2022-08-04T11:17:22.698Z,99666.09
2022-08-04T11:20:18.090Z,99663.28
2022-08-04T11:22:51.508Z,99656.91
2022-08-04T11:25:22.079Z,99654.25
2022-08-04T11:27:56.866Z,99654.25
2022-08-04T11:30:30.587Z,99656.63
2022-08-04T11:33:03.546Z,99647.41
2022-08-04T11:35:36.168Z,99653.75
2022-08-04T11:38:09.539Z,99650.41
2022-08-04T11:40:41.827Z,99653.38
2022-08-04T11:44:01.194Z,99651.56
2022-08-04T11:46:22.486Z,99650.34
2022-08-04T11:48:54.876Z,99645.44
2022-08-04T11:51:24.547Z,99644.00
2022-08-04T11:53:53.077Z,99634.50
2022-08-04T11:56:36.722Z,99640.78
2022-08-04T11:59:09.151Z,99630.78
2022-08-04T12:02:01.531Z,99631.78
2022-08-04T12:04:36.476Z,99635.78
2022-08-04T12:10:00.598Z,99625.22
2022-08-04T12:12:33.980Z,99631.38
2022-08-04T12:15:10.771Z,99629.13
2022-08-04T12:17:53.011Z,99626.19
2022-08-04T12:20:38.069Z,99628.38
2022-08-04T12:23:16.279Z,99613.34
2022-08-04T12:25:48.067Z,99622.19
2022-08-04T12:28:20.055Z,99615.72
2022-08-04T12:31:00.484Z,99621.13
2022-08-04T12:34:03.459Z,99612.88
2022-08-04T12:36:29.572Z,99615.06
2022-08-04T12:39:01.087Z,99615.59
2022-08-04T12:41:36.004Z,99622.25
2022-08-04T12:44:36.420Z,99604.97
2022-08-04T12:47:27.887Z,99603.91
2022-08-04T12:50:00.071Z,99602.00
2022-08-04T12:55:19.460Z,99587.28
2022-08-04T12:57:49.002Z,99590.13
2022-08-04T13:00:29.546Z,99596.63
2022-08-04T13:03:02.588Z,99588.53
2022-08-04T13:05:33.010Z,99589.63
2022-08-04T13:08:02.838Z,99590.13
2022-08-04T13:10:31.820Z,99582.94
2022-08-04T13:13:03.442Z,99573.31
2022-08-04T13:15:47.334Z,99574.16
2022-08-04T13:18:27.384Z,99565.03
2022-08-04T13:21:20.414Z,99564.56
2022-08-04T13:24:10.163Z,99559.88
2022-08-04T13:26:54.739Z,99559.59
2022-08-04T13:30:00.644Z,99559.34
2022-08-04T13:32:16.694Z,99561.41
2022-08-04T13:34:48.900Z,99554.16
2022-08-04T13:37:25.011Z,99552.19
2022-08-04T13:39:55.851Z,99559.72
2022-08-04T13:42:27.484Z,99556.81
2022-08-04T13:44:57.418Z,99549.16
2022-08-04T13:47:29.613Z,99553.47
2022-08-04T13:50:11.185Z,99547.78
2022-08-04T13:52:42.559Z,99541.25
2022-08-04T13:55:19.951Z,99549.34
2022-08-04T13:57:51.601Z,99549.91
2022-08-04T14:00:29.984Z,99542.13
2022-08-04T14:03:01.680Z,99543.34
2022-08-04T14:05:35.368Z,99538.19
2022-08-04T14:08:25.435Z,99535.31
2022-08-04T14:10:57.936Z,99538.53
2022-08-04T14:13:41.217Z,99539.72
2022-08-04T14:16:17.718Z,99532.97
2022-08-04T14:18:46.359Z,99530.22
2022-08-04T14:21:15.514Z,99527.84
2022-08-04T14:23:52.566Z,99526.44
2022-08-04T14:26:33.348Z,99524.09
2022-08-04T14:29:26.788Z,99526.44
2022-08-04T14:32:10.543Z,99520.44
2022-08-04T14:34:44.975Z,99518.63
2022-08-04T14:37:18.480Z,99522.97
2022-08-04T14:40:18.639Z,99527.16
2022-08-04T14:42:53.933Z,99526.66
2022-08-04T14:45:31.997Z,99521.38
2022-08-04T14:48:01.701Z,99519.13
2022-08-04T14:50:38.790Z,99522.72
2022-08-04T14:53:08.655Z,99525.78
2022-08-04T14:55:39.808Z,99518.84
2022-08-04T14:58:33.799Z,99514.13
2022-08-04T15:00:58.838Z,99516.66
2022-08-04T15:03:27.803Z,99509.19
2022-08-04T15:06:02.907Z,99509.19
2022-08-04T15:08:35.606Z,99506.66
2022-08-04T15:11:05.591Z,99514.47
2022-08-04T15:13:34.237Z,99508.06
2022-08-04T15:16:06.975Z,99508.06
2022-08-04T15:18:38.767Z,99509.97
2022-08-04T15:21:09.040Z,99513.63
2022-08-04T15:23:39.307Z,99514.47
2022-08-04T15:26:15.452Z,99512.78
2022-08-04T15:28:51.938Z,99506.25
2022-08-04T15:32:03.979Z,99507.78
2022-08-04T15:34:12.035Z,99510.41
2022-08-04T15:36:44.802Z,99508.09
2022-08-04T15:39:33.157Z,99500.16
2022-08-04T15:42:23.161Z,99500.28
2022-08-04T15:45:03.156Z,99495.44
2022-08-04T15:47:32.359Z,99496.13
2022-08-04T15:50:04.871Z,99495.16
2022-08-04T15:53:12.446Z,99499.31
2022-08-04T15:55:43.894Z,99486.81
2022-08-04T15:58:14.856Z,99492.22
2022-08-04T16:00:54.430Z,99485.84
2022-08-04T16:03:58.390Z,99483.63
2022-08-04T16:06:33.528Z,99487.53
2022-08-04T16:09:02.979Z,99476.97
2022-08-04T16:11:41.501Z,99487.81
2022-08-04T16:14:11.843Z,99485.63
2022-08-04T16:16:49.554Z,99478.81
2022-08-04T16:19:24.569Z,99481.72
2022-08-04T16:22:05.583Z,99482.69
2022-08-04T16:24:37.485Z,99482.81
2022-08-04T16:27:07.175Z,99476.84
2022-08-04T16:29:41.803Z,99477.84
2022-08-04T16:32:19.075Z,99479.38
2022-08-04T16:34:55.103Z,99483.41
2022-08-04T16:37:25.984Z,99471.47
2022-08-04T16:40:09.554Z,99475.91
2022-08-04T16:42:38.674Z,99472.69
2022-08-04T16:45:14.980Z,99471.47
2022-08-04T16:47:55.473Z,99468.25
2022-08-04T16:50:26.194Z,99466.59
2022-08-04T16:52:55.626Z,99468.06
2022-08-04T16:55:25.409Z,99471.41
2022-08-04T16:57:55.031Z,99466.66
2022-08-04T17:00:31.985Z,99469.56
2022-08-04T17:03:04.069Z,99461.81
2022-08-04T17:05:39.507Z,99466.38
2022-08-04T17:10:58.638Z,99465.09
2022-08-04T17:14:03.348Z,99473.56
2022-08-04T17:16:23.086Z,99468.81
2022-08-04T17:18:52.763Z,99468.22
2022-08-04T17:21:23.256Z,99473.19
2022-08-04T17:24:13.145Z,99470.00
2022-08-04T17:26:45.471Z,99472.19
2022-08-04T17:29:44.622Z,99466.34
2022-08-04T17:32:22.097Z,99475.50
2022-08-04T17:34:51.857Z,99466.44
2022-08-04T17:37:40.706Z,99473.91
2022-08-04T17:40:13.513Z,99475.28
2022-08-04T17:42:45.299Z,99483.13
2022-08-04T17:48:09.255Z,99475.69
2022-08-04T17:50:43.592Z,99477.03
2022-08-04T17:53:13.374Z,99474.47
2022-08-04T17:55:43.942Z,99482.16
2022-08-04T17:58:20.913Z,99473.50
2022-08-04T18:01:23.765Z,99477.59
2022-08-04T18:03:52.950Z,99475.56
2022-08-04T18:06:25.688Z,99474.66
2022-08-04T18:08:59.062Z,99474.72
2022-08-04T18:11:41.715Z,99476.16
2022-08-04T18:14:11.178Z,99475.25
2022-08-04T18:16:46.583Z,99465.47
2022-08-04T18:22:08.166Z,99470.50
2022-08-04T18:24:55.684Z,99471.25
2022-08-04T18:30:53.148Z,99492.50
2022-08-04T18:33:39.749Z,99485.91
2022-08-04T18:36:35.479Z,99482.69
2022-08-04T18:38:54.583Z,99484.31
2022-08-04T18:41:24.998Z,99483.88
2022-08-04T18:43:56.710Z,99488.47
2022-08-04T18:50:59.727Z,99499.09
2022-08-04T18:52:05.408Z,99494.41
2022-08-04T18:54:42.006Z,99503.38
2022-08-04T18:57:32.436Z,99505.53
2022-08-04T19:00:00.414Z,99502.28
2022-08-04T19:02:29.831Z,99503.66
2022-08-04T19:04:58.031Z,99515.06
2022-08-04T19:07:30.583Z,99514.75
2022-08-04T19:09:59.692Z,99511.09
2022-08-04T19:12:28.923Z,99524.09
2022-08-04T19:15:07.897Z,99525.53
2022-08-04T19:17:52.831Z,99528.38
2022-08-04T19:20:25.989Z,99524.50
2022-08-04T19:24:10.315Z,99529.50
2022-08-04T19:25:58.913Z,99523.22
2022-08-04T19:28:34.389Z,99530.72
2022-08-04T19:31:04.515Z,99535.22
2022-08-04T19:33:58.466Z,99536.69
2022-08-04T19:36:27.811Z,99533.13
2022-08-04T19:38:59.534Z,99535.06
2022-08-04T19:41:31.170Z,99527.16
2022-08-04T19:44:01.011Z,99531.00
2022-08-04T19:46:29.560Z,99537.06
2022-08-04T19:49:00.395Z,99537.06
2022-08-04T19:51:30.039Z,99532.03
2022-08-04T19:54:03.796Z,99533.19
2022-08-04T19:59:25.602Z,99529.25
2022-08-04T20:02:01.133Z,99529.34
2022-08-04T20:04:31.245Z,99533.28
2022-08-04T20:07:01.243Z,99535.34
2022-08-04T20:09:37.364Z,99536.88
2022-08-04T20:12:06.994Z,99535.69
2022-08-04T20:14:39.572Z,99541.22
2022-08-04T20:17:09.991Z,99533.28
2022-08-04T20:19:39.357Z,99534.13
2022-08-04T20:22:08.637Z,99533.56
2022-08-04T20:25:18.327Z,99536.75
2022-08-04T20:28:00.101Z,99542.72
2022-08-04T20:30:30.293Z,99535.56
2022-08-04T20:33:00.396Z,99530.19
2022-08-04T20:35:29.213Z,99533.69
2022-08-04T20:38:00.879Z,99532.84
2022-08-04T20:40:32.046Z,99538.28
2022-08-04T20:43:01.310Z,99537.88
2022-08-04T20:45:57.159Z,99532.84
2022-08-04T20:48:19.356Z,99533.09
2022-08-04T20:50:54.484Z,99535.97
2022-08-04T20:53:46.645Z,99539.09
2022-08-04T20:56:19.184Z,99543.63
2022-08-04T20:59:00.450Z,99543.00
2022-08-04T21:01:30.000Z,99545.78
2022-08-04T21:04:09.170Z,99544.44
2022-08-04T21:06:37.707Z,99547.06
2022-08-04T21:09:09.549Z,99543.44
2022-08-04T21:11:47.340Z,99547.91
2022-08-04T21:14:19.602Z,99545.31
2022-08-04T21:16:54.032Z,99542.78
2022-08-04T21:19:24.559Z,99547.16
2022-08-04T21:21:55.768Z,99548.16
2022-08-04T21:24:26.389Z,99554.56
2022-08-04T21:26:57.733Z,99547.69
2022-08-04T21:32:15.918Z,99538.63
2022-08-04T21:34:44.555Z,99543.84
2022-08-04T21:37:23.204Z,99550.09
2022-08-04T21:40:15.248Z,99547.50
2022-08-04T21:42:50.119Z,99552.88
2022-08-04T21:45:22.321Z,99552.03
2022-08-04T21:47:51.228Z,99547.91
2022-08-04T21:50:20.428Z,99547.97
2022-08-04T21:52:49.317Z,99550.84
2022-08-04T21:55:19.348Z,99549.19
2022-08-04T21:57:51.730Z,99552.19
2022-08-04T22:00:21.419Z,99557.72
2022-08-04T22:05:39.482Z,99558.56
2022-08-04T22:08:08.274Z,99561.25
2022-08-04T22:10:49.497Z,99550.50
2022-08-04T22:13:22.657Z,99559.47
2022-08-04T22:16:03.997Z,99560.47
2022-08-04T22:18:36.828Z,99559.19
2022-08-04T22:21:12.028Z,99564.31
2022-08-04T22:23:45.417Z,99566.41
2022-08-04T22:26:20.101Z,99569.59
2022-08-04T22:28:57.477Z,99574.06
2022-08-04T22:31:26.930Z,99571.94
2022-08-04T22:34:15.546Z,99573.59
2022-08-04T22:36:48.448Z,99564.13
2022-08-04T22:39:16.833Z,99569.94
2022-08-04T22:42:03.079Z,99568.09
2022-08-04T22:44:35.033Z,99567.16
2022-08-04T22:47:09.356Z,99572.34
2022-08-04T22:49:56.740Z,99566.16
2022-08-04T22:52:49.667Z,99563.66
2022-08-04T22:55:25.486Z,99563.81
2022-08-04T22:58:14.227Z,99562.13
2022-08-04T23:00:44.709Z,99559.53
2022-08-04T23:03:37.457Z,99558.91
2022-08-04T23:06:11.048Z,99553.00
2022-08-04T23:08:46.455Z,99552.16
2022-08-04T23:11:15.937Z,99555.56
2022-08-04T23:13:44.337Z,99557.22
2022-08-04T23:16:14.246Z,99555.56
2022-08-04T23:18:48.328Z,99557.22
2022-08-04T23:21:24.300Z,99558.31
2022-08-04T23:24:00.762Z,99555.72
2022-08-04T23:26:31.920Z,99554.00
2022-08-04T23:29:03.586Z,99552.34
2022-08-04T23:31:40.757Z,99549.59
2022-08-04T23:34:12.205Z,99551.56
2022-08-04T23:36:42.441Z,99546.91
2022-08-04T23:39:11.320Z,99551.25
2022-08-04T23:41:50.932Z,99550.63
2022-08-04T23:44:26.767Z,99544.94
2022-08-04T23:47:01.246Z,99539.75
2022-08-04T23:49:43.224Z,99542.34
2022-08-04T23:52:23.271Z,99537.91
2022-08-04T23:54:58.232Z,99533.75
2022-08-04T23:57:31.065Z,99539.91
